sensor_id;sensor_type;location;lat;lon;timestamp;P1;durP1;ratioP1;P2;durP2;ratioP2
66626;SDS011;53498;50.422;14.912;2022-12-07T00:01:37;3.53;;;2.15;;
66626;SDS011;53498;50.422;14.912;2022-12-07T00:04:20;3.58;;;1.92;;
66626;SDS011;53498;50.422;14.912;2022-12-07T00:06:50;3.03;;;1.63;;
66626;SDS011;53498;50.422;14.912;2022-12-07T00:09:18;2.83;;;1.90;;
66626;SDS011;53498;50.422;14.912;2022-12-07T00:11:44;3.20;;;1.98;;
66626;SDS011;53498;50.422;14.912;2022-12-07T00:14:13;2.20;;;1.27;;
66626;SDS011;53498;50.422;14.912;2022-12-07T00:16:40;2.33;;;1.60;;
66626;SDS011;53498;50.422;14.912;2022-12-07T00:19:06;3.17;;;1.92;;
66626;SDS011;53498;50.422;14.912;2022-12-07T00:21:33;1.92;;;1.33;;
66626;SDS011;53498;50.422;14.912;2022-12-07T00:24:00;1.33;;;1.17;;
66626;SDS011;53498;50.422;14.912;2022-12-07T00:26:28;2.95;;;1.27;;
66626;SDS011;53498;50.422;14.912;2022-12-07T00:28:57;2.80;;;1.60;;
66626;SDS011;53498;50.422;14.912;2022-12-07T00:31:25;2.83;;;1.90;;
66626;SDS011;53498;50.422;14.912;2022-12-07T00:33:52;4.47;;;1.98;;
66626;SDS011;53498;50.422;14.912;2022-12-07T00:36:20;3.10;;;1.48;;
66626;SDS011;53498;50.422;14.912;2022-12-07T00:38:46;2.00;;;1.52;;
66626;SDS011;53498;50.422;14.912;2022-12-07T00:41:14;2.65;;;1.70;;
66626;SDS011;53498;50.422;14.912;2022-12-07T00:43:44;2.50;;;1.10;;
66626;SDS011;53498;50.422;14.912;2022-12-07T00:46:11;2.90;;;1.30;;
66626;SDS011;53498;50.422;14.912;2022-12-07T00:48:37;2.75;;;1.45;;
66626;SDS011;53498;50.422;14.912;2022-12-07T00:51:03;1.70;;;1.40;;
66626;SDS011;53498;50.422;14.912;2022-12-07T00:53:29;1.77;;;1.13;;
66626;SDS011;53498;50.422;14.912;2022-12-07T00:55:55;2.42;;;1.40;;
66626;SDS011;53498;50.422;14.912;2022-12-07T00:58:22;2.30;;;1.23;;
66626;SDS011;53498;50.422;14.912;2022-12-07T01:00:48;2.63;;;1.52;;
66626;SDS011;53498;50.422;14.912;2022-12-07T01:03:14;2.05;;;1.40;;
66626;SDS011;53498;50.422;14.912;2022-12-07T01:05:48;1.40;;;1.20;;
66626;SDS011;53498;50.422;14.912;2022-12-07T01:08:15;4.28;;;1.67;;
66626;SDS011;53498;50.422;14.912;2022-12-07T01:10:41;2.33;;;1.33;;
66626;SDS011;53498;50.422;14.912;2022-12-07T01:13:06;3.85;;;1.50;;
66626;SDS011;53498;50.422;14.912;2022-12-07T01:15:32;2.50;;;1.23;;
66626;SDS011;53498;50.422;14.912;2022-12-07T01:17:57;3.10;;;1.40;;
66626;SDS011;53498;50.422;14.912;2022-12-07T01:20:26;2.58;;;1.40;;
66626;SDS011;53498;50.422;14.912;2022-12-07T01:22:52;1.35;;;1.20;;
66626;SDS011;53498;50.422;14.912;2022-12-07T01:25:17;2.38;;;1.23;;
66626;SDS011;53498;50.422;14.912;2022-12-07T01:27:43;2.78;;;1.85;;
66626;SDS011;53498;50.422;14.912;2022-12-07T01:30:09;2.33;;;1.55;;
66626;SDS011;53498;50.422;14.912;2022-12-07T01:32:36;3.22;;;1.30;;
66626;SDS011;53498;50.422;14.912;2022-12-07T01:35:02;2.50;;;1.23;;
66626;SDS011;53498;50.422;14.912;2022-12-07T01:37:27;1.70;;;1.20;;
66626;SDS011;53498;50.422;14.912;2022-12-07T01:39:53;2.20;;;1.25;;
66626;SDS011;53498;50.422;14.912;2022-12-07T01:42:19;1.55;;;1.40;;
66626;SDS011;53498;50.422;14.912;2022-12-07T01:47:56;2.72;;;1.48;;
66626;SDS011;53498;50.422;14.912;2022-12-07T01:50:26;3.95;;;1.55;;
66626;SDS011;53498;50.422;14.912;2022-12-07T01:52:56;2.20;;;1.38;;
66626;SDS011;53498;50.422;14.912;2022-12-07T01:55:27;3.47;;;2.03;;
66626;SDS011;53498;50.422;14.912;2022-12-07T01:57:54;3.35;;;1.70;;
66626;SDS011;53498;50.422;14.912;2022-12-07T02:00:21;3.13;;;1.48;;
66626;SDS011;53498;50.422;14.912;2022-12-07T02:03:09;4.05;;;2.05;;
66626;SDS011;53498;50.422;14.912;2022-12-07T02:05:41;3.38;;;2.17;;
66626;SDS011;53498;50.422;14.912;2022-12-07T02:08:13;3.33;;;1.80;;
66626;SDS011;53498;50.422;14.912;2022-12-07T02:10:41;3.60;;;1.85;;
66626;SDS011;53498;50.422;14.912;2022-12-07T02:15:38;6.53;;;1.88;;
66626;SDS011;53498;50.422;14.912;2022-12-07T02:18:20;3.03;;;1.27;;
66626;SDS011;53498;50.422;14.912;2022-12-07T02:21:11;3.00;;;1.85;;
66626;SDS011;53498;50.422;14.912;2022-12-07T02:24:28;2.80;;;1.80;;
66626;SDS011;53498;50.422;14.912;2022-12-07T02:26:56;3.33;;;1.92;;
66626;SDS011;53498;50.422;14.912;2022-12-07T02:29:27;4.80;;;1.65;;
66626;SDS011;53498;50.422;14.912;2022-12-07T02:32:10;3.78;;;1.77;;
66626;SDS011;53498;50.422;14.912;2022-12-07T02:34:47;1.88;;;1.60;;
66626;SDS011;53498;50.422;14.912;2022-12-07T02:37:17;4.65;;;2.13;;
66626;SDS011;53498;50.422;14.912;2022-12-07T02:39:55;3.55;;;1.80;;
66626;SDS011;53498;50.422;14.912;2022-12-07T02:42:30;1.42;;;1.33;;
66626;SDS011;53498;50.422;14.912;2022-12-07T02:45:01;2.75;;;1.33;;
66626;SDS011;53498;50.422;14.912;2022-12-07T02:47:28;1.52;;;1.13;;
66626;SDS011;53498;50.422;14.912;2022-12-07T02:49:56;1.77;;;1.38;;
66626;SDS011;53498;50.422;14.912;2022-12-07T02:52:22;3.75;;;1.90;;
66626;SDS011;53498;50.422;14.912;2022-12-07T02:54:47;4.25;;;2.30;;
66626;SDS011;53498;50.422;14.912;2022-12-07T02:57:23;3.08;;;1.35;;
66626;SDS011;53498;50.422;14.912;2022-12-07T03:00:03;3.13;;;1.52;;
66626;SDS011;53498;50.422;14.912;2022-12-07T03:02:41;2.85;;;1.60;;
66626;SDS011;53498;50.422;14.912;2022-12-07T03:08:01;1.70;;;1.60;;
66626;SDS011;53498;50.422;14.912;2022-12-07T03:13:24;2.75;;;2.00;;
66626;SDS011;53498;50.422;14.912;2022-12-07T03:16:07;2.47;;;1.70;;
66626;SDS011;53498;50.422;14.912;2022-12-07T03:18:40;2.00;;;1.52;;
66626;SDS011;53498;50.422;14.912;2022-12-07T03:21:11;3.42;;;1.73;;
66626;SDS011;53498;50.422;14.912;2022-12-07T03:23:45;2.65;;;1.80;;
66626;SDS011;53498;50.422;14.912;2022-12-07T03:26:15;4.50;;;1.92;;
66626;SDS011;53498;50.422;14.912;2022-12-07T03:28:47;4.40;;;2.08;;
66626;SDS011;53498;50.422;14.912;2022-12-07T03:31:19;4.38;;;1.85;;
66626;SDS011;53498;50.422;14.912;2022-12-07T03:36:29;2.05;;;1.85;;
66626;SDS011;53498;50.422;14.912;2022-12-07T03:39:07;2.70;;;1.83;;
66626;SDS011;53498;50.422;14.912;2022-12-07T03:41:35;3.65;;;1.85;;
66626;SDS011;53498;50.422;14.912;2022-12-07T03:44:03;3.22;;;2.20;;
66626;SDS011;53498;50.422;14.912;2022-12-07T03:49:09;6.03;;;2.30;;
66626;SDS011;53498;50.422;14.912;2022-12-07T03:54:19;3.75;;;1.80;;
66626;SDS011;53498;50.422;14.912;2022-12-07T03:56:46;3.80;;;2.03;;
66626;SDS011;53498;50.422;14.912;2022-12-07T03:59:13;3.92;;;1.90;;
66626;SDS011;53498;50.422;14.912;2022-12-07T04:01:44;4.05;;;2.33;;
66626;SDS011;53498;50.422;14.912;2022-12-07T04:04:11;4.22;;;2.08;;
66626;SDS011;53498;50.422;14.912;2022-12-07T04:06:36;3.70;;;1.98;;
66626;SDS011;53498;50.422;14.912;2022-12-07T04:09:02;4.13;;;2.70;;
66626;SDS011;53498;50.422;14.912;2022-12-07T04:11:28;9.00;;;2.25;;
66626;SDS011;53498;50.422;14.912;2022-12-07T04:13:53;3.88;;;2.17;;
66626;SDS011;53498;50.422;14.912;2022-12-07T04:16:37;3.77;;;2.63;;
66626;SDS011;53498;50.422;14.912;2022-12-07T04:19:03;4.22;;;2.13;;
66626;SDS011;53498;50.422;14.912;2022-12-07T04:21:28;3.65;;;2.05;;
66626;SDS011;53498;50.422;14.912;2022-12-07T04:23:54;4.03;;;1.92;;
66626;SDS011;53498;50.422;14.912;2022-12-07T04:26:19;4.97;;;2.47;;
66626;SDS011;53498;50.422;14.912;2022-12-07T04:28:45;4.65;;;2.30;;
66626;SDS011;53498;50.422;14.912;2022-12-07T04:31:10;5.47;;;2.58;;
66626;SDS011;53498;50.422;14.912;2022-12-07T04:33:36;4.32;;;2.70;;
66626;SDS011;53498;50.422;14.912;2022-12-07T04:36:01;5.95;;;2.88;;
66626;SDS011;53498;50.422;14.912;2022-12-07T04:38:27;4.22;;;2.60;;
66626;SDS011;53498;50.422;14.912;2022-12-07T04:40:53;3.33;;;2.13;;
66626;SDS011;53498;50.422;14.912;2022-12-07T04:43:18;3.65;;;2.33;;
66626;SDS011;53498;50.422;14.912;2022-12-07T04:45:47;4.50;;;2.83;;
66626;SDS011;53498;50.422;14.912;2022-12-07T04:48:13;3.17;;;2.00;;
66626;SDS011;53498;50.422;14.912;2022-12-07T04:50:39;3.83;;;2.25;;
66626;SDS011;53498;50.422;14.912;2022-12-07T04:53:05;4.60;;;2.65;;
66626;SDS011;53498;50.422;14.912;2022-12-07T04:55:31;3.35;;;1.83;;
66626;SDS011;53498;50.422;14.912;2022-12-07T04:57:56;3.25;;;2.45;;
66626;SDS011;53498;50.422;14.912;2022-12-07T05:00:22;5.20;;;2.88;;
66626;SDS011;53498;50.422;14.912;2022-12-07T05:02:47;4.00;;;2.55;;
66626;SDS011;53498;50.422;14.912;2022-12-07T05:05:13;3.85;;;2.80;;
66626;SDS011;53498;50.422;14.912;2022-12-07T05:07:39;6.13;;;2.35;;
66626;SDS011;53498;50.422;14.912;2022-12-07T05:10:04;5.97;;;2.95;;
66626;SDS011;53498;50.422;14.912;2022-12-07T05:12:31;5.88;;;3.08;;
66626;SDS011;53498;50.422;14.912;2022-12-07T05:14:56;6.40;;;2.97;;
66626;SDS011;53498;50.422;14.912;2022-12-07T05:17:22;5.65;;;3.78;;
66626;SDS011;53498;50.422;14.912;2022-12-07T05:19:47;6.07;;;3.17;;
66626;SDS011;53498;50.422;14.912;2022-12-07T05:22:13;6.90;;;3.97;;
66626;SDS011;53498;50.422;14.912;2022-12-07T05:24:39;5.28;;;2.80;;
66626;SDS011;53498;50.422;14.912;2022-12-07T05:27:04;4.60;;;3.28;;
66626;SDS011;53498;50.422;14.912;2022-12-07T05:29:30;5.55;;;3.17;;
66626;SDS011;53498;50.422;14.912;2022-12-07T05:31:56;6.75;;;3.40;;
66626;SDS011;53498;50.422;14.912;2022-12-07T05:34:21;6.45;;;3.42;;
66626;SDS011;53498;50.422;14.912;2022-12-07T05:36:47;6.07;;;3.70;;
66626;SDS011;53498;50.422;14.912;2022-12-07T05:39:12;7.90;;;4.28;;
66626;SDS011;53498;50.422;14.912;2022-12-07T05:41:38;7.15;;;3.95;;
66626;SDS011;53498;50.422;14.912;2022-12-07T05:44:22;8.53;;;3.63;;
66626;SDS011;53498;50.422;14.912;2022-12-07T05:46:48;7.82;;;4.03;;
66626;SDS011;53498;50.422;14.912;2022-12-07T05:49:13;9.27;;;4.07;;
66626;SDS011;53498;50.422;14.912;2022-12-07T05:51:39;8.25;;;3.67;;
66626;SDS011;53498;50.422;14.912;2022-12-07T05:54:04;8.55;;;4.72;;
66626;SDS011;53498;50.422;14.912;2022-12-07T05:56:30;9.00;;;4.38;;
66626;SDS011;53498;50.422;14.912;2022-12-07T05:58:56;7.45;;;3.55;;
66626;SDS011;53498;50.422;14.912;2022-12-07T06:04:44;7.93;;;4.25;;
66626;SDS011;53498;50.422;14.912;2022-12-07T06:07:12;5.75;;;3.47;;
66626;SDS011;53498;50.422;14.912;2022-12-07T06:09:39;5.18;;;3.28;;
66626;SDS011;53498;50.422;14.912;2022-12-07T06:12:05;6.75;;;3.60;;
66626;SDS011;53498;50.422;14.912;2022-12-07T06:17:16;7.50;;;4.60;;
66626;SDS011;53498;50.422;14.912;2022-12-07T06:19:42;8.07;;;4.13;;
66626;SDS011;53498;50.422;14.912;2022-12-07T06:22:08;9.60;;;6.18;;
66626;SDS011;53498;50.422;14.912;2022-12-07T06:24:36;7.28;;;4.70;;
66626;SDS011;53498;50.422;14.912;2022-12-07T06:27:03;8.55;;;5.63;;
66626;SDS011;53498;50.422;14.912;2022-12-07T06:29:28;8.90;;;5.15;;
66626;SDS011;53498;50.422;14.912;2022-12-07T06:31:54;7.80;;;5.18;;
66626;SDS011;53498;50.422;14.912;2022-12-07T06:34:20;9.07;;;4.82;;
66626;SDS011;53498;50.422;14.912;2022-12-07T06:36:51;10.23;;;6.00;;
66626;SDS011;53498;50.422;14.912;2022-12-07T06:39:20;9.93;;;5.28;;
66626;SDS011;53498;50.422;14.912;2022-12-07T06:41:47;10.63;;;5.35;;
66626;SDS011;53498;50.422;14.912;2022-12-07T06:44:13;9.13;;;5.35;;
66626;SDS011;53498;50.422;14.912;2022-12-07T06:46:38;8.70;;;4.72;;
66626;SDS011;53498;50.422;14.912;2022-12-07T06:49:04;7.57;;;4.93;;
66626;SDS011;53498;50.422;14.912;2022-12-07T06:51:31;8.98;;;4.80;;
66626;SDS011;53498;50.422;14.912;2022-12-07T06:53:57;7.45;;;4.63;;
66626;SDS011;53498;50.422;14.912;2022-12-07T06:56:23;7.18;;;4.15;;
66626;SDS011;53498;50.422;14.912;2022-12-07T06:58:49;7.35;;;4.70;;
66626;SDS011;53498;50.422;14.912;2022-12-07T07:01:15;6.32;;;4.43;;
66626;SDS011;53498;50.422;14.912;2022-12-07T07:03:42;9.48;;;4.70;;
66626;SDS011;53498;50.422;14.912;2022-12-07T07:06:09;9.73;;;5.00;;
66626;SDS011;53498;50.422;14.912;2022-12-07T07:08:36;7.78;;;4.43;;
66626;SDS011;53498;50.422;14.912;2022-12-07T07:11:03;9.27;;;4.28;;
66626;SDS011;53498;50.422;14.912;2022-12-07T07:13:29;10.43;;;4.88;;
66626;SDS011;53498;50.422;14.912;2022-12-07T07:15:55;7.68;;;4.10;;
66626;SDS011;53498;50.422;14.912;2022-12-07T07:21:42;9.93;;;4.32;;
66626;SDS011;53498;50.422;14.912;2022-12-07T07:24:07;8.75;;;4.03;;
66626;SDS011;53498;50.422;14.912;2022-12-07T07:26:33;7.70;;;4.50;;
66626;SDS011;53498;50.422;14.912;2022-12-07T07:28:58;9.13;;;4.03;;
66626;SDS011;53498;50.422;14.912;2022-12-07T07:31:24;4.85;;;3.83;;
66626;SDS011;53498;50.422;14.912;2022-12-07T07:33:49;7.45;;;4.50;;
66626;SDS011;53498;50.422;14.912;2022-12-07T07:36:15;6.50;;;4.80;;
66626;SDS011;53498;50.422;14.912;2022-12-07T07:38:40;8.10;;;4.13;;
66626;SDS011;53498;50.422;14.912;2022-12-07T07:41:06;8.48;;;4.40;;
66626;SDS011;53498;50.422;14.912;2022-12-07T07:43:32;7.35;;;3.97;;
66626;SDS011;53498;50.422;14.912;2022-12-07T07:45:57;12.02;;;4.85;;
66626;SDS011;53498;50.422;14.912;2022-12-07T07:48:23;7.55;;;3.60;;
66626;SDS011;53498;50.422;14.912;2022-12-07T07:50:51;7.78;;;4.13;;
66626;SDS011;53498;50.422;14.912;2022-12-07T07:53:17;6.05;;;4.10;;
66626;SDS011;53498;50.422;14.912;2022-12-07T07:55:50;8.75;;;4.53;;
66626;SDS011;53498;50.422;14.912;2022-12-07T07:58:17;6.32;;;4.38;;
66626;SDS011;53498;50.422;14.912;2022-12-07T08:00:42;7.72;;;4.20;;
66626;SDS011;53498;50.422;14.912;2022-12-07T08:03:08;5.97;;;3.45;;
66626;SDS011;53498;50.422;14.912;2022-12-07T08:05:33;7.05;;;4.35;;
66626;SDS011;53498;50.422;14.912;2022-12-07T08:07:59;7.07;;;3.75;;
66626;SDS011;53498;50.422;14.912;2022-12-07T08:10:24;7.35;;;3.88;;
66626;SDS011;53498;50.422;14.912;2022-12-07T08:12:50;5.35;;;3.35;;
66626;SDS011;53498;50.422;14.912;2022-12-07T08:15:35;6.80;;;3.92;;
66626;SDS011;53498;50.422;14.912;2022-12-07T08:18:02;8.52;;;4.00;;
66626;SDS011;53498;50.422;14.912;2022-12-07T08:20:29;8.00;;;3.90;;
66626;SDS011;53498;50.422;14.912;2022-12-07T08:22:55;8.48;;;4.75;;
66626;SDS011;53498;50.422;14.912;2022-12-07T08:25:38;7.53;;;4.57;;
66626;SDS011;53498;50.422;14.912;2022-12-07T08:28:04;7.72;;;4.68;;
66626;SDS011;53498;50.422;14.912;2022-12-07T08:30:30;6.70;;;4.47;;
66626;SDS011;53498;50.422;14.912;2022-12-07T08:32:56;9.00;;;4.63;;
66626;SDS011;53498;50.422;14.912;2022-12-07T08:35:23;8.65;;;4.53;;
66626;SDS011;53498;50.422;14.912;2022-12-07T08:37:49;8.50;;;4.05;;
66626;SDS011;53498;50.422;14.912;2022-12-07T08:40:14;9.20;;;4.45;;
66626;SDS011;53498;50.422;14.912;2022-12-07T08:42:44;6.85;;;4.32;;
66626;SDS011;53498;50.422;14.912;2022-12-07T08:45:14;7.80;;;3.88;;
66626;SDS011;53498;50.422;14.912;2022-12-07T08:47:42;5.82;;;3.88;;
66626;SDS011;53498;50.422;14.912;2022-12-07T08:50:11;7.70;;;4.38;;
66626;SDS011;53498;50.422;14.912;2022-12-07T08:52:38;8.88;;;4.57;;
66626;SDS011;53498;50.422;14.912;2022-12-07T08:55:06;6.88;;;4.32;;
66626;SDS011;53498;50.422;14.912;2022-12-07T08:57:32;7.70;;;4.63;;
66626;SDS011;53498;50.422;14.912;2022-12-07T09:00:00;6.68;;;4.30;;
66626;SDS011;53498;50.422;14.912;2022-12-07T09:02:26;8.43;;;4.50;;
66626;SDS011;53498;50.422;14.912;2022-12-07T09:04:52;7.43;;;4.43;;
66626;SDS011;53498;50.422;14.912;2022-12-07T09:07:17;6.85;;;4.20;;
66626;SDS011;53498;50.422;14.912;2022-12-07T09:09:43;8.43;;;4.72;;
66626;SDS011;53498;50.422;14.912;2022-12-07T09:12:08;6.82;;;3.92;;
66626;SDS011;53498;50.422;14.912;2022-12-07T09:14:41;7.63;;;4.88;;
66626;SDS011;53498;50.422;14.912;2022-12-07T09:17:10;5.65;;;3.95;;
66626;SDS011;53498;50.422;14.912;2022-12-07T09:19:37;5.90;;;3.80;;
66626;SDS011;53498;50.422;14.912;2022-12-07T09:22:03;7.85;;;4.80;;
66626;SDS011;53498;50.422;14.912;2022-12-07T09:24:30;5.47;;;3.92;;
66626;SDS011;53498;50.422;14.912;2022-12-07T09:26:57;8.55;;;3.47;;
66626;SDS011;53498;50.422;14.912;2022-12-07T09:29:23;9.13;;;4.60;;
66626;SDS011;53498;50.422;14.912;2022-12-07T09:31:49;7.13;;;4.07;;
66626;SDS011;53498;50.422;14.912;2022-12-07T09:34:14;8.93;;;3.92;;
66626;SDS011;53498;50.422;14.912;2022-12-07T09:36:40;5.70;;;4.22;;
66626;SDS011;53498;50.422;14.912;2022-12-07T09:39:06;7.93;;;3.90;;
66626;SDS011;53498;50.422;14.912;2022-12-07T09:41:31;6.65;;;3.65;;
66626;SDS011;53498;50.422;14.912;2022-12-07T09:44:03;6.57;;;4.50;;
66626;SDS011;53498;50.422;14.912;2022-12-07T09:46:33;7.25;;;3.90;;
66626;SDS011;53498;50.422;14.912;2022-12-07T09:49:01;7.85;;;3.70;;
66626;SDS011;53498;50.422;14.912;2022-12-07T09:51:27;6.22;;;3.42;;
66626;SDS011;53498;50.422;14.912;2022-12-07T09:53:54;6.50;;;3.90;;
66626;SDS011;53498;50.422;14.912;2022-12-07T09:56:22;6.03;;;3.72;;
66626;SDS011;53498;50.422;14.912;2022-12-07T09:58:49;10.43;;;4.60;;
66626;SDS011;53498;50.422;14.912;2022-12-07T10:01:23;6.60;;;4.45;;
66626;SDS011;53498;50.422;14.912;2022-12-07T10:06:16;8.70;;;4.18;;
66626;SDS011;53498;50.422;14.912;2022-12-07T10:08:42;7.47;;;4.53;;
66626;SDS011;53498;50.422;14.912;2022-12-07T10:11:08;8.07;;;4.47;;
66626;SDS011;53498;50.422;14.912;2022-12-07T10:13:36;5.95;;;3.92;;
66626;SDS011;53498;50.422;14.912;2022-12-07T10:16:04;9.65;;;4.15;;
66626;SDS011;53498;50.422;14.912;2022-12-07T10:18:34;9.07;;;4.57;;
66626;SDS011;53498;50.422;14.912;2022-12-07T10:21:10;7.60;;;4.10;;
66626;SDS011;53498;50.422;14.912;2022-12-07T10:23:41;6.60;;;4.35;;
66626;SDS011;53498;50.422;14.912;2022-12-07T10:26:36;12.13;;;4.90;;
66626;SDS011;53498;50.422;14.912;2022-12-07T10:31:38;6.47;;;4.05;;
66626;SDS011;53498;50.422;14.912;2022-12-07T10:34:24;7.72;;;5.22;;
66626;SDS011;53498;50.422;14.912;2022-12-07T10:36:52;10.63;;;4.78;;
66626;SDS011;53498;50.422;14.912;2022-12-07T10:39:22;8.40;;;4.30;;
66626;SDS011;53498;50.422;14.912;2022-12-07T10:41:58;9.27;;;4.10;;
66626;SDS011;53498;50.422;14.912;2022-12-07T10:44:29;7.85;;;4.75;;
66626;SDS011;53498;50.422;14.912;2022-12-07T10:50:02;7.45;;;4.47;;
66626;SDS011;53498;50.422;14.912;2022-12-07T10:55:33;7.13;;;4.10;;
66626;SDS011;53498;50.422;14.912;2022-12-07T11:00:57;9.20;;;4.35;;
66626;SDS011;53498;50.422;14.912;2022-12-07T11:03:46;7.88;;;4.30;;
66626;SDS011;53498;50.422;14.912;2022-12-07T11:11:53;6.80;;;4.00;;
66626;SDS011;53498;50.422;14.912;2022-12-07T11:22:28;8.07;;;4.07;;
66626;SDS011;53498;50.422;14.912;2022-12-07T11:28:04;6.45;;;3.80;;
66626;SDS011;53498;50.422;14.912;2022-12-07T11:33:57;6.30;;;4.00;;
66626;SDS011;53498;50.422;14.912;2022-12-07T11:36:31;4.87;;;3.47;;
66626;SDS011;53498;50.422;14.912;2022-12-07T11:39:04;6.80;;;3.95;;
66626;SDS011;53498;50.422;14.912;2022-12-07T11:41:43;4.53;;;3.10;;
66626;SDS011;53498;50.422;14.912;2022-12-07T11:46:58;4.85;;;3.40;;
66626;SDS011;53498;50.422;14.912;2022-12-07T11:53:21;5.47;;;2.88;;
66626;SDS011;53498;50.422;14.912;2022-12-07T11:55:57;6.40;;;3.50;;
66626;SDS011;53498;50.422;14.912;2022-12-07T11:58:49;4.78;;;2.80;;
66626;SDS011;53498;50.422;14.912;2022-12-07T12:01:39;5.63;;;3.97;;
66626;SDS011;53498;50.422;14.912;2022-12-07T12:07:21;5.18;;;3.05;;
66626;SDS011;53498;50.422;14.912;2022-12-07T12:09:50;6.40;;;3.30;;
66626;SDS011;53498;50.422;14.912;2022-12-07T12:20:49;7.25;;;3.25;;
66626;SDS011;53498;50.422;14.912;2022-12-07T12:25:54;5.22;;;3.40;;
66626;SDS011;53498;50.422;14.912;2022-12-07T12:28:29;4.90;;;2.67;;
66626;SDS011;53498;50.422;14.912;2022-12-07T12:36:23;5.32;;;2.95;;
66626;SDS011;53498;50.422;14.912;2022-12-07T12:39:18;4.82;;;2.60;;
66626;SDS011;53498;50.422;14.912;2022-12-07T12:51:52;3.63;;;2.30;;
66626;SDS011;53498;50.422;14.912;2022-12-07T12:54:33;3.25;;;2.33;;
66626;SDS011;53498;50.422;14.912;2022-12-07T13:15:40;5.95;;;2.28;;
66626;SDS011;53498;50.422;14.912;2022-12-07T13:20:52;5.28;;;2.22;;
66626;SDS011;53498;50.422;14.912;2022-12-07T13:23:25;4.10;;;1.75;;
66626;SDS011;53498;50.422;14.912;2022-12-07T13:25:54;3.10;;;1.80;;
66626;SDS011;53498;50.422;14.912;2022-12-07T13:28:26;2.65;;;1.90;;
66626;SDS011;53498;50.422;14.912;2022-12-07T13:36:01;3.28;;;1.55;;
66626;SDS011;53498;50.422;14.912;2022-12-07T13:38:28;3.55;;;1.63;;
66626;SDS011;53498;50.422;14.912;2022-12-07T13:41:30;6.63;;;2.70;;
66626;SDS011;53498;50.422;14.912;2022-12-07T13:43:53;4.50;;;2.13;;
66626;SDS011;53498;50.422;14.912;2022-12-07T13:46:27;4.70;;;2.05;;
66626;SDS011;53498;50.422;14.912;2022-12-07T13:49:01;3.72;;;2.20;;
66626;SDS011;53498;50.422;14.912;2022-12-07T13:51:27;3.22;;;2.45;;
66626;SDS011;53498;50.422;14.912;2022-12-07T13:53:54;4.45;;;2.30;;
66626;SDS011;53498;50.422;14.912;2022-12-07T13:56:33;3.35;;;1.88;;
66626;SDS011;53498;50.422;14.912;2022-12-07T13:59:00;4.15;;;1.90;;
66626;SDS011;53498;50.422;14.912;2022-12-07T14:01:26;3.45;;;1.92;;
66626;SDS011;53498;50.422;14.912;2022-12-07T14:03:52;2.47;;;1.52;;
66626;SDS011;53498;50.422;14.912;2022-12-07T14:09:25;4.17;;;2.27;;
66626;SDS011;53498;50.422;14.912;2022-12-07T14:11:46;3.00;;;1.92;;
66626;SDS011;53498;50.422;14.912;2022-12-07T14:14:16;4.32;;;2.22;;
66626;SDS011;53498;50.422;14.912;2022-12-07T14:16:54;2.78;;;1.95;;
66626;SDS011;53498;50.422;14.912;2022-12-07T14:19:41;3.45;;;2.28;;
66626;SDS011;53498;50.422;14.912;2022-12-07T14:22:08;5.43;;;2.05;;
66626;SDS011;53498;50.422;14.912;2022-12-07T14:24:43;3.13;;;2.08;;
66626;SDS011;53498;50.422;14.912;2022-12-07T14:27:19;4.30;;;2.00;;
66626;SDS011;53498;50.422;14.912;2022-12-07T14:29:46;3.70;;;1.83;;
66626;SDS011;53498;50.422;14.912;2022-12-07T14:32:21;4.15;;;2.03;;
66626;SDS011;53498;50.422;14.912;2022-12-07T14:34:57;4.18;;;2.15;;
66626;SDS011;53498;50.422;14.912;2022-12-07T14:37:28;4.43;;;2.75;;
66626;SDS011;53498;50.422;14.912;2022-12-07T14:39:55;3.83;;;2.63;;
66626;SDS011;53498;50.422;14.912;2022-12-07T14:42:22;5.85;;;2.92;;
66626;SDS011;53498;50.422;14.912;2022-12-07T14:44:51;5.97;;;3.35;;
66626;SDS011;53498;50.422;14.912;2022-12-07T14:47:16;3.88;;;2.42;;
66626;SDS011;53498;50.422;14.912;2022-12-07T14:49:42;5.88;;;2.50;;
66626;SDS011;53498;50.422;14.912;2022-12-07T14:52:11;6.18;;;3.67;;
66626;SDS011;53498;50.422;14.912;2022-12-07T14:54:40;2.70;;;1.95;;
66626;SDS011;53498;50.422;14.912;2022-12-07T14:57:08;4.75;;;2.40;;
66626;SDS011;53498;50.422;14.912;2022-12-07T14:59:34;5.50;;;2.00;;
66626;SDS011;53498;50.422;14.912;2022-12-07T15:02:00;3.47;;;2.67;;
66626;SDS011;53498;50.422;14.912;2022-12-07T15:04:25;5.68;;;2.50;;
66626;SDS011;53498;50.422;14.912;2022-12-07T15:06:58;3.97;;;2.20;;
66626;SDS011;53498;50.422;14.912;2022-12-07T15:09:25;4.03;;;2.58;;
66626;SDS011;53498;50.422;14.912;2022-12-07T15:11:50;6.65;;;3.13;;
66626;SDS011;53498;50.422;14.912;2022-12-07T15:14:19;8.00;;;2.70;;
66626;SDS011;53498;50.422;14.912;2022-12-07T15:16:44;4.47;;;2.90;;
66626;SDS011;53498;50.422;14.912;2022-12-07T15:19:43;7.32;;;3.05;;
66626;SDS011;53498;50.422;14.912;2022-12-07T15:22:02;4.32;;;2.13;;
66626;SDS011;53498;50.422;14.912;2022-12-07T15:28:08;3.22;;;2.25;;
66626;SDS011;53498;50.422;14.912;2022-12-07T15:30:36;4.50;;;2.30;;
66626;SDS011;53498;50.422;14.912;2022-12-07T15:33:02;5.28;;;2.28;;
66626;SDS011;53498;50.422;14.912;2022-12-07T15:35:28;5.55;;;2.38;;
66626;SDS011;53498;50.422;14.912;2022-12-07T15:37:53;4.68;;;2.30;;
66626;SDS011;53498;50.422;14.912;2022-12-07T15:40:19;4.30;;;2.17;;
66626;SDS011;53498;50.422;14.912;2022-12-07T15:42:44;4.25;;;2.17;;
66626;SDS011;53498;50.422;14.912;2022-12-07T15:45:10;4.18;;;3.05;;
66626;SDS011;53498;50.422;14.912;2022-12-07T15:47:36;6.88;;;2.97;;
66626;SDS011;53498;50.422;14.912;2022-12-07T15:50:04;5.30;;;2.80;;
66626;SDS011;53498;50.422;14.912;2022-12-07T15:52:32;5.07;;;2.45;;
66626;SDS011;53498;50.422;14.912;2022-12-07T15:54:58;3.67;;;2.53;;
66626;SDS011;53498;50.422;14.912;2022-12-07T15:57:28;4.53;;;2.38;;
66626;SDS011;53498;50.422;14.912;2022-12-07T15:59:55;5.70;;;3.22;;
66626;SDS011;53498;50.422;14.912;2022-12-07T16:02:20;3.63;;;2.55;;
66626;SDS011;53498;50.422;14.912;2022-12-07T16:04:48;4.35;;;2.50;;
66626;SDS011;53498;50.422;14.912;2022-12-07T16:07:13;5.43;;;2.30;;
66626;SDS011;53498;50.422;14.912;2022-12-07T16:09:44;5.82;;;2.60;;
66626;SDS011;53498;50.422;14.912;2022-12-07T16:12:11;5.43;;;2.90;;
66626;SDS011;53498;50.422;14.912;2022-12-07T16:14:38;5.00;;;3.20;;
66626;SDS011;53498;50.422;14.912;2022-12-07T16:17:05;4.57;;;2.95;;
66626;SDS011;53498;50.422;14.912;2022-12-07T16:19:33;5.72;;;3.10;;
66626;SDS011;53498;50.422;14.912;2022-12-07T16:21:59;5.60;;;3.08;;
66626;SDS011;53498;50.422;14.912;2022-12-07T16:24:25;6.50;;;3.20;;
66626;SDS011;53498;50.422;14.912;2022-12-07T16:26:50;5.63;;;2.95;;
66626;SDS011;53498;50.422;14.912;2022-12-07T16:29:17;4.80;;;2.78;;
66626;SDS011;53498;50.422;14.912;2022-12-07T16:31:44;5.78;;;2.92;;
66626;SDS011;53498;50.422;14.912;2022-12-07T16:34:10;4.38;;;2.88;;
66626;SDS011;53498;50.422;14.912;2022-12-07T16:36:36;3.35;;;2.28;;
66626;SDS011;53498;50.422;14.912;2022-12-07T16:39:02;5.15;;;3.40;;
66626;SDS011;53498;50.422;14.912;2022-12-07T16:41:28;7.63;;;3.33;;
66626;SDS011;53498;50.422;14.912;2022-12-07T16:43:54;6.20;;;2.90;;
66626;SDS011;53498;50.422;14.912;2022-12-07T16:46:19;4.95;;;2.58;;
66626;SDS011;53498;50.422;14.912;2022-12-07T16:48:45;3.50;;;2.90;;
66626;SDS011;53498;50.422;14.912;2022-12-07T16:51:11;6.60;;;3.15;;
66626;SDS011;53498;50.422;14.912;2022-12-07T16:53:39;5.55;;;3.08;;
66626;SDS011;53498;50.422;14.912;2022-12-07T16:59:54;7.18;;;3.30;;